Weather at Mandalay International Airport

Public forecast

Using degrees Celsius for public forecast. Weather courtesy of forecast.io.

Current aviation weather report (METAR) for Mandalay International Airport

Retrieved 2020/12/02 07:30 UTC (29 minutes ago):

VYMD 020730Z 35003KT 7000 NSC 31/18 Q1012 NOSIG

Aviation forecast (TAF) for Mandalay International Airport

Retrieved 2020/12/02 06:00 UTC (2 hours ago):

TAF VYMD 020500Z 0206/0306 33003KT 7000 FEW025 TEMPO 0206/0212 36005KT 6000 SCT020